Time;durP1;ratioP1;P1;durP2;ratioP2;P2;SDS_P1;SDS_P2;PMS_P1;PMS_P2;Temp;Humidity;BMP_temperature;BMP_pressure;BME280_temperature;BME280_humidity;BME280_pressure;Samples;Min_cycle;Max_cycle;Signal;HPM_P1;HPM_P2
2022/03/20 00:00:16;;;;;;;;;;;10.50;99.90;;;;;;5055679;28;19913;-78
2022/03/20 00:02:42;;;;;;;;;;;10.50;99.90;;;;;;5055708;28;19916;-80
2022/03/20 00:05:08;;;;;;;;;;;10.60;99.90;;;;;;5054412;28;19908;-82
2022/03/20 00:07:34;;;;;;;;;;;10.60;99.90;;;;;;5055511;28;19908;-79
2022/03/20 00:10:00;;;;;;;;;;;10.50;99.90;;;;;;5055667;28;19916;-82
2022/03/20 00:12:26;;;;;;;;;;;10.50;99.90;;;;;;5053859;28;19912;-78
2022/03/20 00:14:51;;;;;;;;;;;10.50;99.90;;;;;;5055683;28;19916;-82
2022/03/20 00:17:17;;;;;;;;;;;10.60;99.90;;;;;;5055707;28;19909;-78
2022/03/20 00:19:44;;;;;;;;;;;10.80;99.90;;;;;;5054386;28;19962;-79
2022/03/20 00:22:11;;;;;;;;;;;10.90;99.90;;;;;;5055374;28;19915;-78
2022/03/20 00:24:40;;;;;;;;;;;11.00;99.90;;;;;;5053972;28;19955;-82
2022/03/20 00:27:07;;;;;;;;;;;11.10;99.90;;;;;;5053969;28;19915;-81
2022/03/20 00:29:32;;;;;;;;;;;11.00;99.90;;;;;;5053930;28;20280;-80
2022/03/20 00:31:58;;;;;;;;;;;10.80;99.90;;;;;;5055373;28;19935;-79
2022/03/20 00:34:24;;;;;;;;;;;11.00;99.90;;;;;;5055116;28;20015;-81
2022/03/20 00:36:49;;;;;;;;;;;11.00;99.90;;;;;;5055031;28;20398;-80
2022/03/20 00:39:15;;;;;;;;;;;11.00;99.90;;;;;;5053561;28;19921;-80
2022/03/20 00:41:40;;;;;;;;;;;10.90;99.90;;;;;;5054929;28;20388;-78
2022/03/20 00:44:06;;;;;;;;;;;10.90;99.90;;;;;;5055080;28;19916;-78
2022/03/20 00:46:32;;;;;;;;;;;10.80;99.90;;;;;;5053550;28;20284;-81
2022/03/20 00:48:57;;;;;;;;;;;10.90;99.90;;;;;;5053501;28;19916;-80
2022/03/20 00:51:23;;;;;;;;;;;10.90;99.90;;;;;;5054665;28;19913;-83
2022/03/20 00:53:48;;;;;;;;;;;10.80;99.90;;;;;;5054764;28;20360;-80
2022/03/20 00:56:14;;;;;;;;;;;10.80;99.90;;;;;;5054675;28;19913;-81
2022/03/20 00:58:40;;;;;;;;;;;10.70;99.90;;;;;;5054615;28;19931;-80
2022/03/20 01:01:05;;;;;;;;;;;10.70;99.90;;;;;;5054591;28;19916;-80
2022/03/20 01:03:31;;;;;;;;;;;10.60;99.90;;;;;;5054759;28;20287;-78
2022/03/20 01:05:57;;;;;;;;;;;10.60;99.90;;;;;;5054615;28;20277;-78
2022/03/20 01:08:24;;;;;;;;;;;10.70;99.90;;;;;;5054504;28;19916;-81
2022/03/20 01:10:49;;;;;;;;;;;10.70;99.90;;;;;;5053012;28;19927;-80
2022/03/20 01:13:15;;;;;;;;;;;10.70;99.90;;;;;;5054317;28;20003;-82
2022/03/20 01:15:41;;;;;;;;;;;10.70;99.90;;;;;;5054588;28;19909;-78
2022/03/20 01:18:07;;;;;;;;;;;10.70;99.90;;;;;;5054433;28;19909;-78
2022/03/20 01:20:33;;;;;;;;;;;10.50;99.90;;;;;;5054257;28;19913;-79
2022/03/20 01:22:59;;;;;;;;;;;10.50;99.90;;;;;;5054233;28;19912;-82
2022/03/20 01:25:25;;;;;;;;;;;10.40;99.90;;;;;;5054418;28;20403;-78
2022/03/20 01:27:51;;;;;;;;;;;10.50;99.90;;;;;;5054150;28;19908;-81
2022/03/20 01:30:16;;;;;;;;;;;10.50;99.90;;;;;;5053817;28;20257;-81
2022/03/20 01:32:42;;;;;;;;;;;10.30;99.90;;;;;;5052654;28;19920;-81
2022/03/20 01:35:09;;;;;;;;;;;10.30;99.90;;;;;;5054045;28;19952;-81
2022/03/20 01:37:36;;;;;;;;;;;10.30;99.90;;;;;;5052515;28;19959;-83
2022/03/20 01:40:03;;;;;;;;;;;10.30;99.90;;;;;;5054104;28;20291;-82
2022/03/20 01:42:28;;;;;;;;;;;10.20;99.90;;;;;;5053862;28;19909;-78
2022/03/20 01:44:54;;;;;;;;;;;10.40;99.90;;;;;;5053846;28;20338;-83
2022/03/20 01:47:20;;;;;;;;;;;10.70;99.90;;;;;;5053775;28;19912;-80
2022/03/20 01:49:46;;;;;;;;;;;10.70;99.90;;;;;;5053797;28;20535;-81
2022/03/20 01:52:13;;;;;;;;;;;10.80;99.90;;;;;;5054012;28;19920;-80
2022/03/20 01:54:42;;;;;;;;;;;10.80;99.90;;;;;;5052346;28;20258;-81
2022/03/20 01:57:09;;;;;;;;;;;10.90;99.90;;;;;;5053951;28;19919;-82
2022/03/20 01:59:36;;;;;;;;;;;10.90;99.90;;;;;;5054151;28;19915;-81
2022/03/20 02:02:05;;;;;;;;;;;10.90;99.90;;;;;;5052351;28;19948;-79
2022/03/20 02:04:31;;;;;;;;;;;10.80;99.90;;;;;;5053755;28;20007;-79
2022/03/20 02:06:57;;;;;;;;;;;10.70;99.90;;;;;;5053580;28;19916;-79
2022/03/20 02:09:23;;;;;;;;;;;10.70;99.90;;;;;;5053743;28;19909;-80
2022/03/20 02:11:49;;;;;;;;;;;10.50;99.90;;;;;;5053512;28;20372;-82
2022/03/20 02:14:14;;;;;;;;;;;10.50;99.90;;;;;;5053503;28;19913;-81
2022/03/20 02:16:40;;;;;;;;;;;10.40;99.90;;;;;;5053518;28;20352;-81
2022/03/20 02:19:07;;;;;;;;;;;10.60;99.90;;;;;;5053598;28;19909;-80
2022/03/20 02:21:36;;;;;;;;;;;10.70;99.90;;;;;;5053433;28;19967;-80
2022/03/20 02:24:02;;;;;;;;;;;10.70;99.90;;;;;;5053411;28;19975;-81
2022/03/20 02:26:29;;;;;;;;;;;10.80;99.90;;;;;;5053534;28;20383;-81
2022/03/20 02:28:54;;;;;;;;;;;10.70;99.90;;;;;;5053554;28;19913;-81
2022/03/20 02:31:21;;;;;;;;;;;10.60;99.90;;;;;;5053353;28;20292;-80
2022/03/20 02:33:46;;;;;;;;;;;10.60;99.90;;;;;;5053332;28;20330;-83
2022/03/20 02:36:12;;;;;;;;;;;10.60;99.90;;;;;;5053335;28;19998;-83
2022/03/20 02:38:38;;;;;;;;;;;10.60;99.90;;;;;;5053194;28;20289;-80
2022/03/20 02:41:14;;;;;;;;;;;10.60;99.90;;;;;;5053318;28;19913;-81
2022/03/20 02:43:49;;;;;;;;;;;10.50;99.90;;;;;;5055691;28;19909;-81
2022/03/20 02:46:16;;;;;;;;;;;10.40;99.90;;;;;;5055909;28;19993;-79
2022/03/20 02:48:42;;;;;;;;;;;10.50;99.90;;;;;;5057103;28;20381;-80
2022/03/20 02:51:08;;;;;;;;;;;10.60;99.90;;;;;;5057042;28;20019;-81
2022/03/20 02:53:36;;;;;;;;;;;10.60;99.90;;;;;;5056994;28;19993;-82
2022/03/20 02:56:02;;;;;;;;;;;10.50;99.90;;;;;;5056976;28;19916;-82
2022/03/20 02:58:28;;;;;;;;;;;10.20;99.90;;;;;;5057234;28;20292;-80
2022/03/20 03:00:55;;;;;;;;;;;10.30;99.90;;;;;;5057065;28;19909;-79
2022/03/20 03:03:21;;;;;;;;;;;10.20;99.90;;;;;;5057050;28;19908;-78
2022/03/20 03:05:47;;;;;;;;;;;10.20;99.90;;;;;;5056796;28;20016;-82
2022/03/20 03:10:57;;;;;;;;;;;10.50;99.90;;;;;;5056694;28;20008;-81
2022/03/20 03:13:26;;;;;;;;;;;10.40;99.90;;;;;;5055332;28;19940;-80
2022/03/20 03:15:52;;;;;;;;;;;10.50;99.90;;;;;;5055249;28;19960;-79
2022/03/20 03:18:18;;;;;;;;;;;10.60;99.90;;;;;;5056549;28;19916;-78
2022/03/20 03:20:45;;;;;;;;;;;10.70;99.90;;;;;;5056476;28;19909;-81
2022/03/20 03:23:11;;;;;;;;;;;10.70;99.90;;;;;;5056405;28;19944;-78
2022/03/20 03:25:40;;;;;;;;;;;10.70;99.90;;;;;;5055150;28;19909;-82
2022/03/20 03:28:06;;;;;;;;;;;10.70;99.90;;;;;;5056341;28;19931;-82
2022/03/20 03:30:32;;;;;;;;;;;10.70;99.90;;;;;;5054955;28;19909;-81
2022/03/20 03:32:57;;;;;;;;;;;10.70;99.90;;;;;;5056269;28;19909;-79
2022/03/20 03:35:41;;;;;;;;;;;10.70;99.90;;;;;;5056381;28;20002;-79
2022/03/20 03:38:11;;;;;;;;;;;10.70;99.90;;;;;;5056199;28;19928;-80
2022/03/20 03:40:40;;;;;;;;;;;10.50;99.90;;;;;;5056252;28;20361;-79
2022/03/20 03:43:06;;;;;;;;;;;10.40;99.90;;;;;;5056338;28;19916;-80
2022/03/20 03:45:31;;;;;;;;;;;10.30;99.90;;;;;;5054773;28;19909;-82
2022/03/20 03:47:57;;;;;;;;;;;10.40;99.90;;;;;;5054709;28;19908;-78
2022/03/20 03:50:22;;;;;;;;;;;10.30;99.90;;;;;;5055935;28;19909;-80
2022/03/20 03:52:48;;;;;;;;;;;10.30;99.90;;;;;;5055984;28;20369;-82
2022/03/20 03:55:14;;;;;;;;;;;10.30;99.90;;;;;;5055681;28;20284;-82
2022/03/20 03:57:44;;;;;;;;;;;10.30;99.90;;;;;;5055830;28;19995;-81
2022/03/20 04:00:10;;;;;;;;;;;10.40;99.90;;;;;;5055945;28;19909;-79
2022/03/20 04:02:35;;;;;;;;;;;10.30;99.90;;;;;;5054461;28;19916;-80
2022/03/20 04:05:01;;;;;;;;;;;10.30;99.90;;;;;;5055689;28;19909;-79
2022/03/20 04:07:27;;;;;;;;;;;10.30;99.90;;;;;;5055640;28;20288;-79
2022/03/20 04:09:52;;;;;;;;;;;10.20;99.90;;;;;;5054311;28;19909;-81
2022/03/20 04:12:18;;;;;;;;;;;10.30;99.90;;;;;;5055687;28;20332;-81
2022/03/20 04:14:44;;;;;;;;;;;10.30;99.90;;;;;;5055498;28;19916;-79
2022/03/20 04:17:09;;;;;;;;;;;10.30;99.90;;;;;;5055736;28;19909;-80
2022/03/20 04:19:35;;;;;;;;;;;10.20;99.90;;;;;;5055493;28;19913;-82
2022/03/20 04:22:01;;;;;;;;;;;10.10;99.90;;;;;;5054059;28;19908;-80
2022/03/20 04:24:28;;;;;;;;;;;10.20;99.90;;;;;;5055312;28;19908;-81
2022/03/20 04:26:54;;;;;;;;;;;10.30;99.90;;;;;;5055554;28;19978;-80
2022/03/20 04:29:20;;;;;;;;;;;10.30;99.90;;;;;;5055304;28;19909;-81
2022/03/20 04:31:47;;;;;;;;;;;10.30;99.90;;;;;;5055082;28;19913;-79
2022/03/20 04:34:12;;;;;;;;;;;10.30;99.90;;;;;;5055110;28;20442;-79
2022/03/20 04:36:38;;;;;;;;;;;10.20;99.90;;;;;;5053786;28;19908;-79
2022/03/20 04:39:04;;;;;;;;;;;10.20;99.90;;;;;;5054803;28;19924;-81
2022/03/20 04:41:29;;;;;;;;;;;10.20;99.90;;;;;;5054965;28;19909;-81
2022/03/20 04:43:55;;;;;;;;;;;10.20;99.90;;;;;;5054972;28;20292;-82
2022/03/20 04:46:20;;;;;;;;;;;10.20;99.90;;;;;;5054898;28;20395;-83
2022/03/20 04:59:43;;;;;;;;;;;10.20;99.90;;;;;;5054385;28;19915;-82
2022/03/20 05:02:09;;;;;;;;;;;10.20;99.90;;;;;;5055081;28;20007;-80
2022/03/20 05:04:34;;;;;;;;;;;10.20;99.90;;;;;;5054812;28;20000;-79
2022/03/20 05:07:00;;;;;;;;;;;10.10;99.90;;;;;;5053943;28;19909;-83
2022/03/20 05:14:58;;;;;;;;;;;10.00;99.90;;;;;;5054263;28;19963;-80
2022/03/20 05:17:24;;;;;;;;;;;10.00;99.90;;;;;;5052739;28;19939;-80
2022/03/20 05:19:49;;;;;;;;;;;9.90;99.90;;;;;;5054290;28;19959;-80
2022/03/20 05:22:15;;;;;;;;;;;9.90;99.90;;;;;;5054232;28;19909;-81
2022/03/20 05:24:41;;;;;;;;;;;9.80;99.90;;;;;;5054170;28;19916;-79
2022/03/20 05:27:07;;;;;;;;;;;9.80;99.90;;;;;;5054135;28;20271;-79
2022/03/20 05:29:33;;;;;;;;;;;9.80;99.90;;;;;;5052829;28;19920;-80
2022/03/20 05:32:00;;;;;;;;;;;9.70;99.90;;;;;;5053989;28;20277;-79
2022/03/20 05:34:26;;;;;;;;;;;9.70;99.90;;;;;;5054041;28;19909;-80
2022/03/20 05:36:52;;;;;;;;;;;9.70;99.90;;;;;;5052699;28;19916;-81
2022/03/20 05:39:18;;;;;;;;;;;9.60;99.90;;;;;;5053776;28;20292;-81
2022/03/20 05:41:47;;;;;;;;;;;9.60;99.90;;;;;;5054076;28;19909;-81
2022/03/20 05:44:16;;;;;;;;;;;9.60;99.90;;;;;;5053967;28;19909;-79
2022/03/20 05:46:42;;;;;;;;;;;9.70;99.90;;;;;;5053792;28;20289;-79
2022/03/20 05:49:08;;;;;;;;;;;9.70;99.90;;;;;;5054097;28;20332;-79
2022/03/20 05:51:34;;;;;;;;;;;9.70;99.90;;;;;;5053685;28;19952;-80
2022/03/20 05:54:00;;;;;;;;;;;9.60;99.90;;;;;;5053683;28;19909;-82
2022/03/20 05:59:10;;;;;;;;;;;9.60;99.90;;;;;;5053737;28;20289;-82
2022/03/20 06:01:36;;;;;;;;;;;9.50;99.90;;;;;;5052339;28;19909;-79
2022/03/20 06:04:03;;;;;;;;;;;9.50;99.90;;;;;;5053820;28;19908;-78
2022/03/20 06:06:30;;;;;;;;;;;9.50;99.90;;;;;;5052270;28;20403;-82
2022/03/20 06:08:55;;;;;;;;;;;9.50;99.90;;;;;;5053556;28;19913;-80
2022/03/20 06:11:21;;;;;;;;;;;9.50;99.90;;;;;;5053471;28;19920;-79
2022/03/20 06:13:48;;;;;;;;;;;9.50;99.90;;;;;;5053551;28;19915;-80
2022/03/20 06:16:17;;;;;;;;;;;9.50;99.90;;;;;;5053798;28;19916;-81
2022/03/20 06:18:43;;;;;;;;;;;9.50;99.90;;;;;;5056076;28;19916;-80
2022/03/20 06:21:12;;;;;;;;;;;9.50;99.90;;;;;;5056303;28;19909;-82
2022/03/20 06:23:38;;;;;;;;;;;9.50;99.90;;;;;;5057755;28;20411;-80
2022/03/20 06:26:04;;;;;;;;;;;9.50;99.90;;;;;;5057695;28;19937;-80
2022/03/20 06:28:30;;;;;;;;;;;9.50;99.90;;;;;;5057474;28;20392;-80
2022/03/20 06:30:55;;;;;;;;;;;9.40;99.90;;;;;;5057387;28;19913;-79
2022/03/20 06:33:21;;;;;;;;;;;9.40;99.90;;;;;;5056123;28;19909;-80
2022/03/20 06:35:47;;;;;;;;;;;9.40;99.90;;;;;;5057359;28;19909;-81
2022/03/20 06:38:12;;;;;;;;;;;9.40;99.90;;;;;;5057198;28;20288;-81
2022/03/20 06:40:38;;;;;;;;;;;9.40;99.90;;;;;;5055763;28;19909;-81
2022/03/20 06:43:05;;;;;;;;;;;9.40;99.90;;;;;;5055926;28;19949;-80
2022/03/20 06:45:30;;;;;;;;;;;9.40;99.90;;;;;;5055937;28;19915;-80
2022/03/20 06:47:56;;;;;;;;;;;9.30;99.90;;;;;;5057514;28;20280;-81
2022/03/20 06:50:21;;;;;;;;;;;9.30;99.90;;;;;;5057094;28;19908;-79
2022/03/20 06:52:47;;;;;;;;;;;9.30;99.90;;;;;;5057016;28;19920;-82
2022/03/20 06:55:13;;;;;;;;;;;9.30;99.90;;;;;;5055676;28;19909;-81
2022/03/20 06:57:41;;;;;;;;;;;9.30;99.90;;;;;;5056977;28;19999;-79
2022/03/20 07:00:07;;;;;;;;;;;9.40;99.90;;;;;;5057116;28;20326;-79
2022/03/20 07:02:34;;;;;;;;;;;9.50;99.90;;;;;;5056793;28;20438;-82
2022/03/20 07:05:00;;;;;;;;;;;9.50;99.90;;;;;;5056784;28;19909;-80
2022/03/20 07:07:26;;;;;;;;;;;9.40;99.90;;;;;;5056775;28;19915;-80
2022/03/20 07:09:52;;;;;;;;;;;9.40;99.90;;;;;;5056710;28;20003;-80
2022/03/20 07:12:18;;;;;;;;;;;9.50;99.90;;;;;;5056820;28;19912;-81
2022/03/20 07:14:44;;;;;;;;;;;9.60;99.90;;;;;;5056807;28;20345;-79
2022/03/20 07:17:13;;;;;;;;;;;9.60;99.90;;;;;;5056574;28;20380;-80
2022/03/20 07:19:40;;;;;;;;;;;9.70;99.90;;;;;;5055261;28;19908;-80
2022/03/20 07:22:06;;;;;;;;;;;9.80;99.90;;;;;;5056452;28;19909;-81
2022/03/20 07:24:34;;;;;;;;;;;9.80;99.90;;;;;;5056825;28;19909;-81
2022/03/20 07:29:44;;;;;;;;;;;9.80;99.90;;;;;;5055880;28;20308;-81
2022/03/20 07:32:10;;;;;;;;;;;9.90;99.90;;;;;;5056224;28;19912;-81
2022/03/20 07:34:37;;;;;;;;;;;9.90;99.90;;;;;;5056428;28;19908;-80
2022/03/20 07:37:03;;;;;;;;;;;9.90;99.90;;;;;;5054892;28;19908;-78
2022/03/20 07:39:29;;;;;;;;;;;10.00;99.90;;;;;;5055891;28;20054;-82
2022/03/20 07:41:56;;;;;;;;;;;10.10;99.90;;;;;;5056182;28;19917;-79
2022/03/20 07:44:23;;;;;;;;;;;10.10;99.90;;;;;;5056065;28;20360;-79
2022/03/20 07:46:48;;;;;;;;;;;10.10;99.90;;;;;;5056361;28;19954;-82
2022/03/20 07:49:14;;;;;;;;;;;10.20;99.90;;;;;;5055993;28;19908;-77
2022/03/20 07:51:42;;;;;;;;;;;10.10;99.90;;;;;;5055895;28;19913;-81
2022/03/20 07:54:07;;;;;;;;;;;10.10;99.90;;;;;;5055902;28;19909;-79
2022/03/20 07:56:35;;;;;;;;;;;10.20;99.90;;;;;;5056384;28;19920;-81
2022/03/20 07:59:01;;;;;;;;;;;10.10;99.90;;;;;;5055862;28;19909;-80
2022/03/20 08:01:28;;;;;;;;;;;10.20;99.90;;;;;;5055813;28;19948;-79
2022/03/20 08:03:55;;;;;;;;;;;10.20;99.90;;;;;;5055686;28;19909;-79
2022/03/20 08:06:21;;;;;;;;;;;10.20;99.90;;;;;;5054384;28;20284;-79
2022/03/20 08:08:46;;;;;;;;;;;10.20;99.90;;;;;;5055734;28;19908;-79
2022/03/20 08:11:12;;;;;;;;;;;10.20;99.90;;;;;;5055935;28;19920;-80
2022/03/20 08:13:38;;;;;;;;;;;10.30;99.90;;;;;;5055842;28;19916;-79
2022/03/20 08:16:04;;;;;;;;;;;10.50;99.90;;;;;;5055715;28;19951;-80
2022/03/20 08:18:30;;;;;;;;;;;10.50;99.90;;;;;;5055435;28;19909;-82
2022/03/20 08:20:55;;;;;;;;;;;10.50;99.40;;;;;;5056005;28;19996;-81
2022/03/20 08:23:21;;;;;;;;;;;10.40;99.00;;;;;;5055510;28;19908;-80
2022/03/20 08:25:47;;;;;;;;;;;10.50;98.80;;;;;;5055402;28;19909;-79
2022/03/20 08:28:13;;;;;;;;;;;10.40;98.90;;;;;;5055269;28;19909;-83
2022/03/20 08:30:40;;;;;;;;;;;10.50;98.70;;;;;;5055201;28;19909;-82
2022/03/20 08:33:06;;;;;;;;;;;10.60;98.20;;;;;;5055419;28;19909;-80
2022/03/20 08:35:31;;;;;;;;;;;10.60;98.60;;;;;;5055199;28;19908;-81
2022/03/20 08:37:57;;;;;;;;;;;10.70;98.50;;;;;;5053638;28;19928;-80
2022/03/20 08:40:23;;;;;;;;;;;10.80;98.50;;;;;;5054209;28;19916;-82
2022/03/20 08:42:52;;;;;;;;;;;11.00;98.70;;;;;;5054034;28;19932;-83
2022/03/20 08:45:19;;;;;;;;;;;11.00;98.00;;;;;;5055220;28;20399;-79
2022/03/20 08:47:44;;;;;;;;;;;11.10;98.10;;;;;;5054874;28;19961;-80
2022/03/20 08:50:10;;;;;;;;;;;11.00;97.70;;;;;;5054845;28;19996;-79
2022/03/20 08:52:36;;;;;;;;;;;11.00;97.60;;;;;;5054913;28;19920;-80
2022/03/20 08:55:09;;;;;;;;;;;11.00;98.00;;;;;;5054667;28;20038;-82
2022/03/20 08:57:36;;;;;;;;;;;11.10;99.00;;;;;;5054761;28;19913;-80
2022/03/20 09:00:02;;;;;;;;;;;11.10;97.50;;;;;;5054562;28;20011;-81
2022/03/20 09:02:28;;;;;;;;;;;11.10;97.60;;;;;;5054632;28;20010;-81
2022/03/20 09:04:53;;;;;;;;;;;11.30;97.30;;;;;;5053265;28;19916;-81
2022/03/20 09:07:19;;;;;;;;;;;11.20;96.80;;;;;;5054521;28;20023;-81
2022/03/20 09:09:44;;;;;;;;;;;11.30;96.70;;;;;;5054529;28;20280;-79
2022/03/20 09:12:11;;;;;;;;;;;11.40;96.60;;;;;;5054833;28;19946;-82
2022/03/20 09:14:37;;;;;;;;;;;11.50;96.80;;;;;;5054407;28;20351;-79
2022/03/20 09:19:47;;;;;;;;;;;11.40;95.80;;;;;;5054033;28;19915;-82
2022/03/20 09:22:16;;;;;;;;;;;11.60;95.70;;;;;;5054261;28;20339;-83
2022/03/20 09:24:42;;;;;;;;;;;11.60;94.90;;;;;;5054494;28;20269;-78
2022/03/20 09:27:07;;;;;;;;;;;11.60;95.50;;;;;;5054147;28;19908;-81
2022/03/20 09:29:33;;;;;;;;;;;11.60;95.40;;;;;;5054137;28;19913;-79
2022/03/20 09:31:58;;;;;;;;;;;11.80;95.80;;;;;;5053982;28;19916;-81
2022/03/20 09:34:24;;;;;;;;;;;11.90;95.40;;;;;;5054359;28;20161;-79
2022/03/20 09:36:49;;;;;;;;;;;12.00;94.90;;;;;;5054174;28;20364;-82
2022/03/20 09:39:15;;;;;;;;;;;12.10;94.50;;;;;;5053869;28;19921;-82
2022/03/20 09:41:41;;;;;;;;;;;12.30;94.30;;;;;;5053963;28;19916;-80
2022/03/20 09:44:07;;;;;;;;;;;12.50;94.50;;;;;;5054138;28;19909;-81
2022/03/20 09:46:33;;;;;;;;;;;12.60;94.30;;;;;;5053847;28;19920;-82
2022/03/20 09:49:00;;;;;;;;;;;12.50;93.50;;;;;;5053784;28;19953;-78
2022/03/20 09:51:26;;;;;;;;;;;12.60;93.30;;;;;;5052213;28;20396;-84
2022/03/20 09:53:52;;;;;;;;;;;12.60;93.80;;;;;;5053682;28;19909;-79
2022/03/20 09:56:17;;;;;;;;;;;12.50;93.10;;;;;;5053792;28;19970;-78
2022/03/20 09:58:43;;;;;;;;;;;12.90;93.70;;;;;;5053718;28;19916;-82
2022/03/20 10:01:08;;;;;;;;;;;13.00;93.90;;;;;;5053757;28;20427;-79
2022/03/20 10:03:34;;;;;;;;;;;13.50;94.00;;;;;;5053610;28;19909;-80
2022/03/20 10:06:02;;;;;;;;;;;13.50;92.40;;;;;;5053662;28;20404;-80
2022/03/20 10:08:28;;;;;;;;;;;13.70;91.30;;;;;;5053733;28;19909;-82
2022/03/20 10:11:10;;;;;;;;;;;14.00;91.40;;;;;;5052237;28;19962;-79
2022/03/20 10:13:36;;;;;;;;;;;14.00;90.50;;;;;;5053591;28;19915;-81
2022/03/20 10:16:15;;;;;;;;;;;14.20;90.90;;;;;;5053517;28;19909;-80
2022/03/20 10:18:41;;;;;;;;;;;14.70;91.00;;;;;;5051977;28;19913;-81
2022/03/20 10:21:09;;;;;;;;;;;15.40;87.80;;;;;;5053586;28;19909;-81
2022/03/20 10:23:41;;;;;;;;;;;15.90;87.50;;;;;;5054037;28;19948;-81
2022/03/20 10:26:08;;;;;;;;;;;16.50;84.60;;;;;;5053394;28;20008;-79
2022/03/20 10:28:38;;;;;;;;;;;17.60;81.10;;;;;;5053476;28;19958;-84
2022/03/20 10:31:05;;;;;;;;;;;18.30;78.40;;;;;;5053319;28;19942;-80
2022/03/20 10:33:30;;;;;;;;;;;19.20;73.50;;;;;;5053428;28;19916;-84
2022/03/20 10:36:09;;;;;;;;;;;19.80;70.90;;;;;;5053374;28;19913;-83
2022/03/20 10:38:37;;;;;;;;;;;21.20;65.90;;;;;;5053107;28;20300;-82
2022/03/20 10:41:21;;;;;;;;;;;23.40;61.10;;;;;;5053302;28;19987;-81
2022/03/20 10:43:47;;;;;;;;;;;25.30;57.90;;;;;;5052078;28;19909;-85
2022/03/20 10:46:17;;;;;;;;;;;25.70;52.00;;;;;;5051928;28;19909;-83
2022/03/20 10:48:43;;;;;;;;;;;26.20;51.80;;;;;;5053334;28;19909;-85
2022/03/20 10:51:09;;;;;;;;;;;26.40;49.70;;;;;;5053267;28;20003;-83
2022/03/20 10:53:35;;;;;;;;;;;26.90;47.90;;;;;;5053107;28;20419;-82
2022/03/20 10:56:08;;;;;;;;;;;26.20;47.10;;;;;;5053150;28;19913;-83
2022/03/20 10:58:40;;;;;;;;;;;25.10;47.50;;;;;;5053114;28;20345;-82
2022/03/20 11:01:07;;;;;;;;;;;24.70;49.00;;;;;;5053066;28;19919;-82
2022/03/20 11:03:35;;;;;;;;;;;25.30;49.40;;;;;;5053775;28;19917;-83
2022/03/20 11:06:01;;;;;;;;;;;26.60;47.50;;;;;;5056852;28;19909;-83
2022/03/20 11:08:28;;;;;;;;;;;27.10;46.40;;;;;;5055536;28;19945;-81
2022/03/20 11:10:54;;;;;;;;;;;27.40;45.30;;;;;;5055380;28;20002;-80
2022/03/20 11:13:22;;;;;;;;;;;28.10;45.00;;;;;;5056912;28;19909;-83
2022/03/20 11:15:48;;;;;;;;;;;28.10;44.30;;;;;;5055388;28;20015;-83
2022/03/20 11:18:15;;;;;;;;;;;28.70;44.00;;;;;;5055295;28;20385;-84
2022/03/20 11:20:49;;;;;;;;;;;28.90;44.10;;;;;;5056565;28;20415;-82
2022/03/20 11:23:17;;;;;;;;;;;29.50;43.90;;;;;;5055009;28;19917;-85
2022/03/20 11:25:47;;;;;;;;;;;29.90;42.80;;;;;;5056619;28;20361;-81
2022/03/20 11:28:13;;;;;;;;;;;29.50;42.50;;;;;;5056527;28;19908;-81
2022/03/20 11:30:39;;;;;;;;;;;30.10;42.60;;;;;;5056347;28;20324;-82
2022/03/20 11:33:06;;;;;;;;;;;30.60;41.10;;;;;;5054929;28;19917;-82
2022/03/20 11:35:33;;;;;;;;;;;31.80;42.00;;;;;;5056425;28;20007;-83
2022/03/20 11:38:14;;;;;;;;;;;32.20;40.90;;;;;;5055953;28;19917;-82
2022/03/20 11:40:41;;;;;;;;;;;31.00;40.20;;;;;;5054855;28;19916;-84
2022/03/20 11:43:14;;;;;;;;;;;30.10;41.30;;;;;;5056188;28;20426;-82
2022/03/20 11:45:40;;;;;;;;;;;30.40;41.20;;;;;;5056081;28;19916;-85
2022/03/20 11:48:15;;;;;;;;;;;31.20;41.10;;;;;;5056060;28;19908;-81
2022/03/20 11:50:41;;;;;;;;;;;31.90;40.20;;;;;;5056008;28;20368;-82
2022/03/20 11:53:08;;;;;;;;;;;31.40;40.70;;;;;;5054590;28;19935;-81
2022/03/20 11:55:38;;;;;;;;;;;31.90;39.90;;;;;;5054558;28;19909;-83
2022/03/20 11:58:22;;;;;;;;;;;31.80;39.80;;;;;;5055883;28;19909;-82
2022/03/20 12:01:04;;;;;;;;;;;31.30;40.00;;;;;;5055761;28;19908;-83
2022/03/20 12:03:48;;;;;;;;;;;31.50;39.70;;;;;;5055697;28;19913;-84
2022/03/20 12:06:17;;;;;;;;;;;31.10;41.00;;;;;;5056195;28;19913;-84
2022/03/20 12:08:42;;;;;;;;;;;31.60;40.50;;;;;;5055818;28;20422;-84
2022/03/20 12:11:23;;;;;;;;;;;31.40;39.80;;;;;;5054256;28;19913;-84
2022/03/20 12:13:49;;;;;;;;;;;32.30;40.40;;;;;;5055653;28;19909;-85
2022/03/20 12:16:34;;;;;;;;;;;32.80;40.30;;;;;;5054183;28;19919;-81
2022/03/20 12:19:11;;;;;;;;;;;33.20;38.90;;;;;;5055503;28;19909;-83
2022/03/20 12:21:52;;;;;;;;;;;32.00;38.70;;;;;;5055436;28;19915;-80
2022/03/20 12:24:46;;;;;;;;;;;31.00;41.00;;;;;;5054121;28;19909;-82
2022/03/20 12:27:18;;;;;;;;;;;31.80;40.20;;;;;;5051340;28;19916;-85
2022/03/20 12:29:44;;;;;;;;;;;32.90;40.30;;;;;;5055300;28;20368;-84
2022/03/20 12:32:14;;;;;;;;;;;33.90;38.50;;;;;;5055129;28;20007;-84
2022/03/20 12:34:43;;;;;;;;;;;33.50;38.80;;;;;;5055241;28;19983;-83
2022/03/20 12:37:27;;;;;;;;;;;33.00;39.40;;;;;;5055115;28;19941;-80
2022/03/20 12:39:55;;;;;;;;;;;34.00;39.30;;;;;;5054893;28;20021;-84
2022/03/20 12:42:23;;;;;;;;;;;34.00;39.80;;;;;;5055153;28;19985;-82
2022/03/20 12:44:51;;;;;;;;;;;35.70;38.50;;;;;;5053708;28;19909;-83
2022/03/20 12:47:17;;;;;;;;;;;33.30;38.50;;;;;;5053585;28;19958;-83
2022/03/20 12:49:45;;;;;;;;;;;31.30;40.40;;;;;;5053586;28;20403;-84
2022/03/20 12:52:11;;;;;;;;;;;29.80;41.30;;;;;;5053522;28;20280;-85
2022/03/20 12:54:37;;;;;;;;;;;28.10;43.10;;;;;;5054713;28;20004;-81
2022/03/20 12:57:04;;;;;;;;;;;26.10;44.50;;;;;;5054765;28;20304;-84
2022/03/20 12:59:29;;;;;;;;;;;24.70;48.30;;;;;;5053418;28;20276;-80
2022/03/20 13:01:55;;;;;;;;;;;24.00;48.00;;;;;;5054654;28;19999;-82
2022/03/20 13:04:21;;;;;;;;;;;23.30;49.40;;;;;;5053305;28;19966;-83
2022/03/20 13:06:47;;;;;;;;;;;23.00;50.80;;;;;;5053221;28;19909;-81
2022/03/20 13:09:14;;;;;;;;;;;22.20;52.90;;;;;;5054519;28;19916;-80
2022/03/20 13:11:51;;;;;;;;;;;21.20;53.70;;;;;;5054348;28;19924;-79
2022/03/20 13:14:17;;;;;;;;;;;20.80;55.00;;;;;;5052866;28;19909;-82
2022/03/20 13:16:49;;;;;;;;;;;20.00;57.00;;;;;;5054586;28;20302;-80
2022/03/20 13:19:44;;;;;;;;;;;20.20;57.10;;;;;;5054362;28;19909;-79
2022/03/20 13:22:12;;;;;;;;;;;20.00;57.70;;;;;;5060768;28;20280;-80
2022/03/20 13:24:40;;;;;;;;;;;20.10;58.50;;;;;;5054195;28;19916;-82
2022/03/20 13:27:07;;;;;;;;;;;20.50;58.00;;;;;;5054105;28;19913;-81
2022/03/20 13:29:33;;;;;;;;;;;20.40;57.90;;;;;;5052849;28;19920;-82
2022/03/20 13:32:06;;;;;;;;;;;19.60;59.20;;;;;;5054157;28;19919;-81
2022/03/20 13:34:32;;;;;;;;;;;19.60;59.80;;;;;;5054348;28;19915;-82
2022/03/20 13:37:06;;;;;;;;;;;19.60;61.30;;;;;;5052734;28;19915;-82
2022/03/20 13:39:33;;;;;;;;;;;19.80;60.00;;;;;;5053596;28;19944;-81
2022/03/20 13:41:58;;;;;;;;;;;19.90;60.60;;;;;;5053908;28;20357;-79
2022/03/20 13:44:24;;;;;;;;;;;19.40;61.90;;;;;;5053904;28;19940;-83
2022/03/20 13:46:52;;;;;;;;;;;19.40;62.00;;;;;;5053378;28;20206;-80
2022/03/20 13:49:18;;;;;;;;;;;19.10;62.20;;;;;;5054233;28;20284;-79
2022/03/20 13:51:50;;;;;;;;;;;18.90;62.30;;;;;;5053993;28;20456;-84
2022/03/20 13:54:20;;;;;;;;;;;18.80;62.90;;;;;;5053851;28;19919;-81
2022/03/20 13:56:48;;;;;;;;;;;18.40;65.00;;;;;;5053778;28;19928;-81
2022/03/20 13:59:14;;;;;;;;;;;18.80;64.00;;;;;;5053694;28;19909;-82
2022/03/20 14:01:50;;;;;;;;;;;18.70;64.40;;;;;;5053907;28;19908;-80
2022/03/20 14:04:16;;;;;;;;;;;18.60;65.60;;;;;;5053628;28;19948;-81
2022/03/20 14:06:43;;;;;;;;;;;18.80;66.70;;;;;;5053755;28;20349;-79
2022/03/20 14:09:09;;;;;;;;;;;18.80;66.20;;;;;;5053620;28;19939;-82
2022/03/20 14:11:36;;;;;;;;;;;18.60;65.00;;;;;;5053560;28;19960;-80
2022/03/20 14:14:03;;;;;;;;;;;18.50;66.50;;;;;;5053521;28;19909;-80
2022/03/20 14:16:29;;;;;;;;;;;18.40;67.30;;;;;;5053485;28;19909;-82
2022/03/20 14:18:56;;;;;;;;;;;18.50;67.80;;;;;;5053720;28;19920;-83
2022/03/20 14:21:21;;;;;;;;;;;18.60;69.40;;;;;;5053546;28;20054;-82
2022/03/20 14:24:09;;;;;;;;;;;18.90;67.40;;;;;;5053471;28;19920;-81
2022/03/20 14:26:35;;;;;;;;;;;18.80;66.80;;;;;;5053481;28;20381;-80
2022/03/20 14:29:10;;;;;;;;;;;18.60;68.70;;;;;;5053599;28;19916;-82
2022/03/20 14:40:08;;;;;;;;;;;18.00;69.40;;;;;;5056223;28;19928;-79
2022/03/20 14:42:34;;;;;;;;;;;17.70;70.00;;;;;;5057246;28;19959;-82
2022/03/20 14:45:03;;;;;;;;;;;17.40;71.10;;;;;;5055994;28;19915;-81
2022/03/20 14:47:29;;;;;;;;;;;17.00;71.80;;;;;;5055949;28;20284;-80
2022/03/20 14:49:56;;;;;;;;;;;17.10;73.90;;;;;;5055877;28;19919;-82
2022/03/20 14:52:22;;;;;;;;;;;17.20;73.80;;;;;;5057132;28;19912;-83
2022/03/20 14:54:52;;;;;;;;;;;16.90;74.90;;;;;;5056982;28;19970;-81